createdAt,value
2019-04-30T00:01:17.398Z,99.90
2019-04-30T00:03:50.631Z,99.90
2019-04-30T00:06:22.492Z,99.90
2019-04-30T00:08:52.419Z,99.90
2019-04-30T00:11:22.075Z,99.90
2019-04-30T00:13:55.281Z,99.90
2019-04-30T00:16:25.159Z,99.90
2019-04-30T00:19:00.439Z,99.90
2019-04-30T00:21:26.383Z,99.90
2019-04-30T00:23:56.266Z,99.90
2019-04-30T00:26:27.630Z,99.90
2019-04-30T00:28:57.409Z,99.90
2019-04-30T00:31:27.538Z,99.90
2019-04-30T00:34:01.245Z,99.90
2019-04-30T00:36:34.102Z,99.90
2019-04-30T00:39:01.465Z,99.90
2019-04-30T00:41:32.745Z,99.90
2019-04-30T00:44:02.481Z,99.90
2019-04-30T00:46:32.507Z,99.90
2019-04-30T00:49:09.270Z,99.90
2019-04-30T00:51:35.339Z,99.90
2019-04-30T00:54:05.739Z,99.90
2019-04-30T00:56:36.886Z,99.90
2019-04-30T00:59:10.446Z,99.90
2019-04-30T01:02:06.157Z,99.90
2019-04-30T01:04:46.161Z,99.90
2019-04-30T01:07:17.144Z,99.90
2019-04-30T01:09:49.827Z,99.90
2019-04-30T01:12:25.506Z,99.90
2019-04-30T01:14:50.219Z,99.90
2019-04-30T01:17:19.905Z,99.90
2019-04-30T01:19:51.228Z,99.90
2019-04-30T01:22:28.212Z,99.90
2019-04-30T01:24:53.160Z,99.90
2019-04-30T01:27:23.164Z,99.90
2019-04-30T01:29:53.054Z,99.90
2019-04-30T01:32:22.718Z,99.90
2019-04-30T01:34:54.055Z,99.90
2019-04-30T01:37:28.423Z,99.90
2019-04-30T01:39:55.480Z,99.90
2019-04-30T01:42:25.230Z,99.90
2019-04-30T01:44:56.028Z,99.90
2019-04-30T01:47:27.807Z,99.90
2019-04-30T01:50:01.092Z,99.90
2019-04-30T01:52:49.375Z,99.90
2019-04-30T01:55:20.694Z,99.90
2019-04-30T01:58:08.672Z,99.90
2019-04-30T02:00:49.303Z,99.90
2019-04-30T02:03:19.391Z,99.90
2019-04-30T02:05:50.185Z,99.90
2019-04-30T02:08:20.942Z,99.90
2019-04-30T02:10:51.375Z,99.90
2019-04-30T02:13:21.357Z,99.90
2019-04-30T02:15:51.064Z,99.90
2019-04-30T02:18:20.868Z,99.90
2019-04-30T02:20:50.611Z,99.90
2019-04-30T02:23:20.346Z,99.90
2019-04-30T02:25:50.044Z,99.90
2019-04-30T02:28:19.708Z,99.90
2019-04-30T02:30:50.384Z,99.90
2019-04-30T02:33:20.899Z,99.90
2019-04-30T02:36:03.682Z,99.90
2019-04-30T02:38:34.018Z,99.90
2019-04-30T02:41:03.865Z,99.90
2019-04-30T02:43:35.042Z,99.90
2019-04-30T02:46:05.643Z,99.90
2019-04-30T02:48:39.659Z,99.90
2019-04-30T02:51:12.438Z,99.90
2019-04-30T02:54:12.349Z,99.90
2019-04-30T02:56:44.407Z,99.90
2019-04-30T02:59:14.162Z,99.90
2019-04-30T03:01:43.862Z,99.90
2019-04-30T03:04:13.759Z,99.90
2019-04-30T03:06:43.512Z,99.90
2019-04-30T03:09:13.242Z,99.90
2019-04-30T03:11:42.974Z,99.90
2019-04-30T03:14:12.639Z,99.90
2019-04-30T03:17:10.009Z,99.90
2019-04-30T03:19:50.220Z,99.90
2019-04-30T03:22:23.273Z,99.90
2019-04-30T03:24:52.949Z,99.90
2019-04-30T03:27:24.812Z,99.90
2019-04-30T03:29:53.994Z,99.90
2019-04-30T03:32:23.701Z,99.90
2019-04-30T03:34:53.499Z,99.90
2019-04-30T03:37:23.245Z,99.90
2019-04-30T03:39:53.015Z,99.90
2019-04-30T03:42:22.762Z,99.90
2019-04-30T03:44:52.459Z,99.90
2019-04-30T03:47:22.185Z,99.90
2019-04-30T03:49:52.101Z,99.90
2019-04-30T03:52:21.985Z,99.90
2019-04-30T03:54:52.675Z,99.90
2019-04-30T03:57:22.436Z,99.90
2019-04-30T03:59:52.171Z,99.90
2019-04-30T04:02:40.586Z,99.90
2019-04-30T04:05:16.363Z,99.90
2019-04-30T04:08:09.620Z,99.90
2019-04-30T04:10:52.705Z,99.90
2019-04-30T04:13:21.268Z,99.90
2019-04-30T04:15:51.037Z,99.90
2019-04-30T04:18:20.997Z,99.90
2019-04-30T04:21:06.618Z,99.90
2019-04-30T04:23:22.120Z,99.90
2019-04-30T04:25:51.812Z,99.90
2019-04-30T04:28:21.972Z,99.90
2019-04-30T04:30:51.724Z,99.90
2019-04-30T04:33:21.395Z,99.90
2019-04-30T04:35:51.082Z,99.90
2019-04-30T04:38:20.809Z,99.90
2019-04-30T04:40:50.527Z,99.90
2019-04-30T04:43:20.463Z,99.90
2019-04-30T04:45:50.325Z,99.90
2019-04-30T04:48:23.208Z,99.90
2019-04-30T04:50:51.523Z,99.90
2019-04-30T04:53:21.349Z,99.90
2019-04-30T04:55:51.048Z,99.90
2019-04-30T04:58:21.490Z,99.90
2019-04-30T05:00:51.692Z,99.90
2019-04-30T05:03:31.754Z,99.90
2019-04-30T05:06:02.617Z,99.90
2019-04-30T05:08:32.751Z,99.90
2019-04-30T05:11:02.450Z,99.90
2019-04-30T05:13:34.626Z,99.90
2019-04-30T05:16:03.958Z,99.90
2019-04-30T05:18:34.780Z,99.90
2019-04-30T05:21:04.548Z,99.60
2019-04-30T05:23:34.338Z,98.80
2019-04-30T05:26:04.136Z,97.90
2019-04-30T05:28:33.913Z,97.20
2019-04-30T05:31:03.650Z,96.40
2019-04-30T05:33:33.638Z,96.40
2019-04-30T05:36:03.331Z,96.00
2019-04-30T05:38:33.069Z,95.70
2019-04-30T05:41:02.783Z,95.20
2019-04-30T05:43:32.579Z,94.60
2019-04-30T05:46:02.417Z,94.20
2019-04-30T05:48:32.194Z,94.30
2019-04-30T05:51:02.025Z,93.50
2019-04-30T05:53:31.756Z,92.80
2019-04-30T05:56:03.239Z,92.20
2019-04-30T05:58:34.168Z,91.90
2019-04-30T06:01:03.984Z,92.20
2019-04-30T06:03:33.682Z,92.30
2019-04-30T06:06:03.572Z,92.20
2019-04-30T06:08:43.105Z,91.00
2019-04-30T06:11:19.776Z,90.30
2019-04-30T06:14:18.606Z,89.80
2019-04-30T06:17:05.292Z,89.80
2019-04-30T06:19:35.216Z,87.30
2019-04-30T06:22:08.090Z,86.50
2019-04-30T06:24:37.090Z,85.30
2019-04-30T06:27:10.560Z,83.00
2019-04-30T06:29:39.089Z,81.90
2019-04-30T06:32:09.448Z,80.30
2019-04-30T06:34:41.921Z,77.30
2019-04-30T06:37:11.665Z,76.50
2019-04-30T06:39:41.477Z,75.60
2019-04-30T06:42:12.979Z,76.50
2019-04-30T06:44:44.136Z,75.00
2019-04-30T06:47:14.280Z,75.10
2019-04-30T06:49:44.316Z,73.30
2019-04-30T06:52:20.532Z,71.40
2019-04-30T06:54:45.532Z,70.10
2019-04-30T06:57:15.251Z,68.80
2019-04-30T06:59:44.938Z,69.40
2019-04-30T07:02:14.640Z,64.90
2019-04-30T07:04:44.440Z,63.50
2019-04-30T07:07:14.472Z,62.40
2019-04-30T07:10:01.189Z,61.60
2019-04-30T07:12:38.874Z,61.40
2019-04-30T07:15:08.822Z,60.60
2019-04-30T07:17:40.572Z,60.60
2019-04-30T07:20:10.506Z,60.90
2019-04-30T07:22:48.901Z,61.40
2019-04-30T07:25:12.054Z,60.00
2019-04-30T07:27:42.073Z,59.60
2019-04-30T07:30:11.987Z,60.00
2019-04-30T07:32:41.687Z,59.50
2019-04-30T07:35:11.563Z,59.50
2019-04-30T07:37:41.290Z,59.70
2019-04-30T07:40:12.505Z,60.00
2019-04-30T07:42:44.902Z,59.60
2019-04-30T07:45:13.755Z,59.70
2019-04-30T07:47:43.417Z,59.70
2019-04-30T07:50:13.969Z,59.10
2019-04-30T07:53:01.085Z,58.30
2019-04-30T07:55:15.381Z,58.10
2019-04-30T07:57:45.067Z,59.10
2019-04-30T08:00:14.891Z,58.90
2019-04-30T08:02:52.694Z,58.80
2019-04-30T08:05:29.904Z,59.30
2019-04-30T08:08:16.221Z,58.70
2019-04-30T08:10:31.767Z,57.70
2019-04-30T08:13:10.180Z,57.80
2019-04-30T08:15:33.047Z,58.40
2019-04-30T08:18:05.837Z,58.20
2019-04-30T08:20:34.231Z,59.00
2019-04-30T08:23:15.616Z,57.70
2019-04-30T08:25:35.553Z,56.90
2019-04-30T08:28:05.496Z,56.80
2019-04-30T08:30:35.234Z,56.40
2019-04-30T08:33:05.066Z,55.80
2019-04-30T08:35:34.852Z,55.40
2019-04-30T08:38:04.848Z,54.60
2019-04-30T08:40:34.843Z,53.90
2019-04-30T08:43:04.870Z,52.60
2019-04-30T08:45:34.850Z,52.30
2019-04-30T08:48:05.024Z,52.60
2019-04-30T08:50:34.783Z,51.80
2019-04-30T08:53:04.825Z,49.50
2019-04-30T08:55:34.868Z,48.40
2019-04-30T08:58:09.859Z,48.50
2019-04-30T09:00:36.280Z,47.50
2019-04-30T09:03:06.253Z,47.30
2019-04-30T09:06:01.560Z,45.40
2019-04-30T09:08:31.376Z,46.00
2019-04-30T09:11:01.198Z,44.90
2019-04-30T09:13:30.993Z,45.00
2019-04-30T09:16:00.694Z,44.40
2019-04-30T09:18:31.996Z,44.30
2019-04-30T09:21:05.956Z,43.70
2019-04-30T09:23:43.909Z,43.40
2019-04-30T09:26:04.742Z,43.20
2019-04-30T09:28:34.478Z,42.80
2019-04-30T09:31:05.916Z,43.30
2019-04-30T09:33:35.800Z,43.00
2019-04-30T09:36:05.664Z,43.10
2019-04-30T09:38:35.371Z,42.20
2019-04-30T09:41:05.192Z,41.00
2019-04-30T09:43:34.890Z,40.40
2019-04-30T09:46:15.216Z,40.00
2019-04-30T09:48:38.492Z,39.90
2019-04-30T09:51:10.225Z,39.70
2019-04-30T09:53:39.966Z,38.70
2019-04-30T09:56:10.196Z,39.10
2019-04-30T09:58:40.045Z,39.40
2019-04-30T10:01:09.735Z,39.50
2019-04-30T10:03:40.138Z,38.90
2019-04-30T10:06:11.954Z,39.00
2019-04-30T10:08:48.365Z,38.70
2019-04-30T10:11:23.443Z,38.20
2019-04-30T10:13:52.944Z,38.30
2019-04-30T10:16:44.896Z,38.20
2019-04-30T10:19:15.035Z,38.80
2019-04-30T10:21:44.955Z,39.00
2019-04-30T10:24:15.783Z,38.30
2019-04-30T10:26:45.870Z,38.20
2019-04-30T10:29:17.316Z,37.30
2019-04-30T10:31:48.938Z,37.40
2019-04-30T10:34:19.032Z,36.90
2019-04-30T10:36:49.529Z,37.20
2019-04-30T10:39:21.705Z,37.00
2019-04-30T10:41:51.126Z,36.90
2019-04-30T10:44:21.995Z,36.70
2019-04-30T10:46:51.813Z,36.40
2019-04-30T10:49:21.592Z,36.70
2019-04-30T10:51:51.429Z,36.70
2019-04-30T10:54:26.041Z,36.20
2019-04-30T10:56:52.760Z,36.20
2019-04-30T10:59:22.635Z,35.40
2019-04-30T11:01:52.396Z,35.70
2019-04-30T11:04:22.305Z,35.70
2019-04-30T11:06:52.035Z,35.90
2019-04-30T11:09:22.207Z,35.40
2019-04-30T11:11:52.033Z,34.60
2019-04-30T11:14:21.884Z,35.50
2019-04-30T11:16:52.116Z,35.20
2019-04-30T11:19:24.548Z,36.00
2019-04-30T11:21:54.818Z,35.10
2019-04-30T11:24:35.889Z,35.00
2019-04-30T11:26:59.880Z,35.30
2019-04-30T11:29:30.790Z,35.30
2019-04-30T11:32:21.322Z,35.20
2019-04-30T11:34:51.313Z,35.00
2019-04-30T11:37:22.205Z,34.80
2019-04-30T11:39:51.986Z,34.60
2019-04-30T11:42:21.713Z,35.20
2019-04-30T11:44:51.422Z,35.30
2019-04-30T11:47:26.639Z,35.10
2019-04-30T11:49:56.439Z,34.70
2019-04-30T11:52:26.303Z,34.90
2019-04-30T11:54:56.203Z,34.50
2019-04-30T11:57:26.351Z,33.80
2019-04-30T11:59:56.213Z,34.10
2019-04-30T12:02:36.663Z,34.80
2019-04-30T12:05:07.557Z,35.00
2019-04-30T12:08:05.459Z,35.30
2019-04-30T12:10:43.302Z,34.40
2019-04-30T12:13:44.267Z,32.90
2019-04-30T12:16:14.074Z,32.30
2019-04-30T12:18:43.806Z,33.10
2019-04-30T12:21:13.508Z,34.40
2019-04-30T12:23:43.181Z,35.20
2019-04-30T12:26:12.831Z,35.20
2019-04-30T12:28:42.507Z,34.30
2019-04-30T12:31:12.226Z,35.00
2019-04-30T12:33:41.900Z,34.50
2019-04-30T12:36:11.729Z,35.20
2019-04-30T12:38:43.775Z,34.10
2019-04-30T12:41:13.560Z,34.20
2019-04-30T12:43:43.298Z,34.20
2019-04-30T12:46:13.120Z,34.70
2019-04-30T12:49:00.982Z,33.70
2019-04-30T12:51:52.871Z,32.70
2019-04-30T12:54:28.434Z,33.10
2019-04-30T12:57:19.233Z,34.00
2019-04-30T12:59:49.023Z,33.40
2019-04-30T13:02:19.192Z,30.30
2019-04-30T13:04:49.406Z,31.70
2019-04-30T13:07:20.642Z,32.00
2019-04-30T13:09:51.059Z,33.20
2019-04-30T13:12:21.652Z,33.50
2019-04-30T13:14:54.663Z,34.00
2019-04-30T13:17:23.164Z,34.80
2019-04-30T13:19:52.926Z,34.60
2019-04-30T13:22:22.604Z,33.80
2019-04-30T13:24:52.373Z,33.50
2019-04-30T13:27:22.657Z,31.30
2019-04-30T13:30:08.189Z,29.80
2019-04-30T13:32:44.346Z,29.50
2019-04-30T13:35:14.232Z,28.70
2019-04-30T13:37:50.068Z,28.40
2019-04-30T13:40:36.354Z,28.70
2019-04-30T13:43:06.673Z,28.50
2019-04-30T13:45:36.462Z,28.60
2019-04-30T13:48:10.288Z,28.80
2019-04-30T13:50:41.667Z,28.90
2019-04-30T13:53:11.402Z,29.20
2019-04-30T13:55:45.485Z,29.10
2019-04-30T13:58:12.480Z,29.10
2019-04-30T14:00:42.313Z,28.70
2019-04-30T14:03:34.221Z,29.20
2019-04-30T14:06:05.890Z,28.90
2019-04-30T14:08:40.512Z,29.20
2019-04-30T14:11:10.354Z,28.80
2019-04-30T14:13:41.082Z,29.00
2019-04-30T14:16:10.855Z,28.50
2019-04-30T14:18:40.971Z,28.40
2019-04-30T14:21:11.003Z,28.80
2019-04-30T14:23:40.847Z,28.40
2019-04-30T14:26:10.621Z,28.30
2019-04-30T14:28:40.483Z,28.40
2019-04-30T14:31:10.407Z,29.00
2019-04-30T14:33:40.222Z,29.60
2019-04-30T14:36:10.043Z,29.80
2019-04-30T14:38:40.683Z,30.50
2019-04-30T14:41:11.361Z,30.60
2019-04-30T14:43:51.009Z,30.80
2019-04-30T14:46:40.031Z,31.10
2019-04-30T14:49:34.823Z,30.60
2019-04-30T14:52:05.280Z,30.40
2019-04-30T14:54:52.945Z,30.40
2019-04-30T14:57:42.785Z,30.40
2019-04-30T15:00:40.919Z,30.00
2019-04-30T15:03:13.068Z,29.90
2019-04-30T15:05:48.644Z,29.40
2019-04-30T15:08:14.187Z,29.00
2019-04-30T15:10:44.133Z,28.90
2019-04-30T15:13:13.955Z,28.10
2019-04-30T15:15:43.989Z,27.90
2019-04-30T15:18:13.707Z,27.60
2019-04-30T15:20:43.520Z,28.00
2019-04-30T15:23:21.855Z,28.50
2019-04-30T15:25:51.813Z,28.40
2019-04-30T15:28:21.579Z,27.90
2019-04-30T15:30:51.965Z,28.80
2019-04-30T15:33:30.145Z,28.50
2019-04-30T15:35:59.998Z,28.20
2019-04-30T15:38:49.023Z,27.20
2019-04-30T15:41:19.476Z,26.40
2019-04-30T15:43:50.203Z,27.10
2019-04-30T15:46:20.133Z,26.60
2019-04-30T15:48:49.905Z,26.80
2019-04-30T15:51:20.193Z,27.10
2019-04-30T15:53:49.900Z,27.60
2019-04-30T15:56:19.855Z,27.90
2019-04-30T15:59:10.387Z,27.50
2019-04-30T16:01:40.843Z,27.60
2019-04-30T16:04:11.995Z,27.40
2019-04-30T16:06:41.871Z,27.50
2019-04-30T16:09:16.026Z,27.40
2019-04-30T16:11:55.568Z,27.40
2019-04-30T16:14:29.508Z,27.50
2019-04-30T16:17:03.934Z,27.20
2019-04-30T16:19:33.761Z,27.00
2019-04-30T16:22:03.770Z,27.00
2019-04-30T16:24:33.724Z,27.50
2019-04-30T16:27:03.521Z,27.90
2019-04-30T16:29:34.521Z,28.00
2019-04-30T16:32:04.564Z,27.80
2019-04-30T16:34:35.322Z,27.60
2019-04-30T16:37:05.292Z,27.70
2019-04-30T16:39:35.064Z,28.00
2019-04-30T16:42:05.049Z,28.00
2019-04-30T16:44:34.852Z,28.40
2019-04-30T16:47:13.769Z,27.90
2019-04-30T16:49:36.603Z,28.10
2019-04-30T16:52:06.498Z,28.40
2019-04-30T16:54:36.254Z,28.00
2019-04-30T16:57:06.789Z,28.00
2019-04-30T16:59:40.863Z,28.30
2019-04-30T17:02:11.764Z,28.70
2019-04-30T17:04:53.085Z,28.80
2019-04-30T17:07:42.137Z,29.10
2019-04-30T17:10:18.863Z,28.80
2019-04-30T17:13:01.795Z,29.10
2019-04-30T17:15:32.019Z,29.20
2019-04-30T17:18:01.735Z,29.10
2019-04-30T17:20:31.591Z,29.30
2019-04-30T17:23:01.254Z,29.50
2019-04-30T17:25:32.131Z,29.40
2019-04-30T17:28:01.989Z,29.50
2019-04-30T17:30:33.538Z,29.60
2019-04-30T17:33:03.381Z,29.70
2019-04-30T17:35:33.257Z,29.70
2019-04-30T17:38:03.186Z,29.80
2019-04-30T17:40:32.937Z,29.70
2019-04-30T17:43:04.775Z,29.90
2019-04-30T17:45:35.131Z,30.00
2019-04-30T17:48:05.091Z,29.70
2019-04-30T17:50:36.001Z,30.10
2019-04-30T17:53:05.987Z,30.00
2019-04-30T17:55:35.719Z,30.20
2019-04-30T17:58:05.562Z,30.10
2019-04-30T18:00:38.907Z,30.10
2019-04-30T18:03:08.803Z,30.20
2019-04-30T18:05:40.272Z,30.50
2019-04-30T18:08:10.271Z,30.80
2019-04-30T18:10:40.591Z,31.20
2019-04-30T18:13:11.372Z,31.70
2019-04-30T18:15:41.165Z,31.70
2019-04-30T18:18:19.078Z,31.60
2019-04-30T18:20:59.354Z,32.00
2019-04-30T18:24:11.332Z,32.80
2019-04-30T18:26:48.012Z,32.60
2019-04-30T18:29:18.853Z,33.20
2019-04-30T18:31:48.659Z,33.60
2019-04-30T18:34:19.440Z,34.30
2019-04-30T18:36:51.251Z,34.60
2019-04-30T18:39:20.945Z,34.50
2019-04-30T18:41:50.685Z,34.50
2019-04-30T18:44:20.383Z,35.80
2019-04-30T18:46:50.117Z,34.90
2019-04-30T18:49:20.580Z,35.70
2019-04-30T18:51:50.323Z,35.80
2019-04-30T18:54:20.982Z,35.40
2019-04-30T18:56:50.871Z,35.70
2019-04-30T18:59:20.578Z,35.80
2019-04-30T19:01:50.446Z,35.60
2019-04-30T19:04:20.271Z,36.70
2019-04-30T19:06:53.144Z,37.10
2019-04-30T19:09:54.297Z,37.10
2019-04-30T19:12:48.916Z,37.20
2019-04-30T19:16:18.563Z,37.50
2019-04-30T19:18:42.334Z,38.10
2019-04-30T19:21:12.128Z,38.40
2019-04-30T19:23:41.835Z,38.70
2019-04-30T19:26:11.543Z,39.10
2019-04-30T19:28:44.072Z,39.40
2019-04-30T19:31:14.698Z,39.20
2019-04-30T19:33:44.421Z,39.40
2019-04-30T19:36:14.356Z,40.00
2019-04-30T19:38:52.541Z,40.30
2019-04-30T19:41:22.561Z,39.80
2019-04-30T19:43:52.421Z,38.80
2019-04-30T19:46:22.232Z,38.80
2019-04-30T19:48:51.929Z,37.80
2019-04-30T19:51:41.091Z,37.00
2019-04-30T19:54:11.347Z,38.80
2019-04-30T19:56:41.352Z,38.30
2019-04-30T19:59:11.213Z,37.50
2019-04-30T20:01:41.049Z,38.50
2019-04-30T20:04:11.079Z,39.00
2019-04-30T20:06:40.843Z,38.60
2019-04-30T20:09:13.122Z,38.40
2019-04-30T20:11:43.280Z,38.10
2019-04-30T20:14:13.194Z,38.10
2019-04-30T20:16:42.907Z,38.60
2019-04-30T20:19:12.792Z,38.40
2019-04-30T20:21:48.673Z,38.50
2019-04-30T20:24:14.148Z,38.50
2019-04-30T20:26:43.841Z,38.40
2019-04-30T20:29:13.640Z,38.40
2019-04-30T20:31:43.559Z,38.40
2019-04-30T20:34:13.357Z,38.40
2019-04-30T20:36:43.090Z,38.60
2019-04-30T20:39:18.889Z,38.30
2019-04-30T20:41:53.049Z,37.90
2019-04-30T20:44:23.962Z,37.80
2019-04-30T20:46:53.701Z,38.20
2019-04-30T20:49:23.426Z,38.50
2019-04-30T20:51:55.897Z,38.00
2019-04-30T20:54:24.853Z,38.10
2019-04-30T20:56:54.598Z,38.30
2019-04-30T20:59:24.327Z,37.90
2019-04-30T21:01:54.235Z,38.00
2019-04-30T21:04:24.091Z,37.90
2019-04-30T21:06:53.797Z,38.20
2019-04-30T21:09:23.500Z,38.60
2019-04-30T21:11:53.300Z,38.70
2019-04-30T21:14:23.052Z,38.40
2019-04-30T21:16:52.950Z,38.00
2019-04-30T21:19:22.671Z,38.00
2019-04-30T21:21:52.404Z,38.00
2019-04-30T21:24:22.137Z,37.90
2019-04-30T21:26:51.825Z,36.90
2019-04-30T21:29:21.551Z,37.00
2019-04-30T21:32:10.344Z,37.80
2019-04-30T21:34:59.560Z,37.80
2019-04-30T21:37:29.395Z,37.30
2019-04-30T21:39:59.162Z,36.80
2019-04-30T21:42:28.939Z,37.00
2019-04-30T21:44:58.952Z,37.10
2019-04-30T21:47:28.738Z,37.10
2019-04-30T21:49:58.478Z,37.20
2019-04-30T21:52:28.454Z,37.40
2019-04-30T21:54:59.596Z,37.80
2019-04-30T21:57:31.203Z,38.50
2019-04-30T22:00:01.180Z,38.50
2019-04-30T22:02:33.000Z,38.70
2019-04-30T22:05:02.834Z,39.00
2019-04-30T22:07:32.760Z,38.80
2019-04-30T22:10:02.930Z,38.80
2019-04-30T22:12:32.841Z,38.90
2019-04-30T22:15:05.742Z,39.40
2019-04-30T22:17:42.370Z,39.40
2019-04-30T22:20:13.195Z,38.50
2019-04-30T22:22:43.087Z,38.10
2019-04-30T22:25:13.500Z,38.30
2019-04-30T22:27:43.418Z,38.80
2019-04-30T22:30:16.625Z,38.40
2019-04-30T22:32:51.017Z,38.40
2019-04-30T22:35:39.089Z,38.80
2019-04-30T22:38:15.783Z,38.70
2019-04-30T22:40:51.252Z,38.00
2019-04-30T22:43:24.475Z,38.80
2019-04-30T22:46:07.231Z,39.50
2019-04-30T22:48:39.373Z,39.50
2019-04-30T22:51:09.317Z,39.40
2019-04-30T22:53:39.391Z,39.90
2019-04-30T22:56:09.294Z,40.10
2019-04-30T22:58:41.893Z,40.00
2019-04-30T23:01:34.481Z,40.50
2019-04-30T23:04:07.732Z,40.80
2019-04-30T23:06:38.266Z,40.80
2019-04-30T23:09:11.139Z,40.90
2019-04-30T23:11:40.965Z,40.90
2019-04-30T23:14:10.850Z,40.50
2019-04-30T23:16:40.733Z,40.20
2019-04-30T23:19:10.577Z,40.00
2019-04-30T23:21:40.332Z,39.60
2019-04-30T23:24:10.229Z,39.10
2019-04-30T23:26:39.982Z,39.30
2019-04-30T23:29:09.959Z,39.00
2019-04-30T23:31:39.670Z,39.50
2019-04-30T23:34:17.742Z,40.10
2019-04-30T23:36:41.457Z,41.00
2019-04-30T23:39:13.520Z,44.20
2019-04-30T23:41:43.427Z,49.00
2019-04-30T23:44:13.241Z,50.50
2019-04-30T23:46:43.072Z,53.50
2019-04-30T23:49:12.844Z,54.20
2019-04-30T23:51:42.649Z,55.50
2019-04-30T23:54:12.387Z,57.00
2019-04-30T23:56:42.347Z,57.50
2019-04-30T23:59:12.257Z,59.40
